Terminal Aerodrome Forecast
Issued by NWS

Home | Current Version | Previous Version | Text Only | Print | Product List | Glossary On
Versions: 1 2 3 4 5 6 7 8 9 10 11 12 13 14 15 16 17 18
000
FTAK31 PAJN 291100
TAFASI
TAF
PASI 291120Z 2912/3012 10004KT P6SM -RA SCT005 BKN035 OVC050
      TEMPO 2913/2916 3SM -RA BR BKN025
     FM291600 14005KT P6SM -RA SCT025 OVC050
     FM292100 18008KT 6SM -RA BR BKN025 OVC050
     FM300400 14006KT P6SM -SHRA SCT020 BKN040 OVC060=

USA.gov is the U.S. government's official web portal to all federal, state and local government web resources and services.